createdAt,value
2022-10-20T00:01:23.848Z,10.40
2022-10-20T00:03:52.932Z,10.40
2022-10-20T00:06:24.735Z,10.40
2022-10-20T00:08:54.911Z,10.40
2022-10-20T00:11:24.639Z,10.40
2022-10-20T00:13:56.022Z,10.40
2022-10-20T00:16:26.180Z,10.30
2022-10-20T00:18:55.932Z,10.30
2022-10-20T00:21:27.153Z,10.30
2022-10-20T00:23:55.695Z,10.30
2022-10-20T00:26:25.835Z,10.30
2022-10-20T00:28:56.759Z,10.30
2022-10-20T00:31:26.086Z,10.40
2022-10-20T00:33:54.583Z,10.40
2022-10-20T00:36:24.258Z,10.40
2022-10-20T00:38:58.135Z,10.40
2022-10-20T00:41:26.283Z,10.40
2022-10-20T00:43:58.922Z,10.30
2022-10-20T00:46:33.248Z,10.30
2022-10-20T00:49:08.295Z,10.30
2022-10-20T00:51:36.708Z,10.20
2022-10-20T00:54:12.224Z,10.20
2022-10-20T00:56:44.013Z,10.20
2022-10-20T00:59:17.719Z,10.10
2022-10-20T01:01:46.945Z,10.20
2022-10-20T01:04:15.695Z,10.10
2022-10-20T01:06:43.880Z,10.10
2022-10-20T01:09:12.559Z,10.10
2022-10-20T01:11:47.424Z,10.10
2022-10-20T01:14:32.469Z,10.10
2022-10-20T01:17:09.888Z,10.00
2022-10-20T01:20:20.048Z,10.00
2022-10-20T01:23:23.031Z,10.00
2022-10-20T01:26:10.127Z,10.00
2022-10-20T01:28:44.393Z,10.00
2022-10-20T01:31:21.517Z,10.00
2022-10-20T01:33:57.386Z,10.00
2022-10-20T01:36:33.271Z,10.00
2022-10-20T01:39:06.098Z,10.00
2022-10-20T01:41:40.127Z,10.00
2022-10-20T01:44:13.283Z,10.00
2022-10-20T01:46:44.395Z,10.00
2022-10-20T01:49:15.075Z,9.90
2022-10-20T01:51:43.253Z,9.90
2022-10-20T01:54:23.050Z,9.80
2022-10-20T01:57:14.407Z,9.80
2022-10-20T01:59:56.531Z,9.80
2022-10-20T02:02:41.904Z,9.80
2022-10-20T02:05:29.309Z,9.80
2022-10-20T02:08:06.772Z,9.80
2022-10-20T02:10:45.613Z,9.70
2022-10-20T02:13:15.387Z,9.70
2022-10-20T02:15:51.549Z,9.70
2022-10-20T02:18:24.336Z,9.70
2022-10-20T02:20:55.811Z,9.70
2022-10-20T02:23:24.351Z,9.70
2022-10-20T02:25:55.690Z,9.60
2022-10-20T02:28:24.265Z,9.60
2022-10-20T02:30:54.091Z,9.60
2022-10-20T02:33:23.504Z,9.60
2022-10-20T02:35:57.560Z,9.60
2022-10-20T02:38:26.099Z,9.60
2022-10-20T02:40:54.177Z,9.60
2022-10-20T02:43:22.294Z,9.60
2022-10-20T02:45:50.421Z,9.50
2022-10-20T02:48:19.849Z,9.50
2022-10-20T02:50:48.174Z,9.50
2022-10-20T02:53:16.226Z,9.50
2022-10-20T02:55:44.614Z,9.50
2022-10-20T02:58:12.771Z,9.50
2022-10-20T03:00:40.838Z,9.50
2022-10-20T03:03:08.923Z,9.50
2022-10-20T03:05:44.317Z,9.50
2022-10-20T03:08:12.875Z,9.50
2022-10-20T03:10:41.585Z,9.50
2022-10-20T03:13:10.910Z,9.40
2022-10-20T03:15:39.487Z,9.50
2022-10-20T03:18:07.553Z,9.50
2022-10-20T03:20:35.734Z,9.50
2022-10-20T03:23:05.202Z,9.50
2022-10-20T03:25:33.479Z,9.40
2022-10-20T03:28:01.557Z,9.40
2022-10-20T03:30:29.904Z,9.40
2022-10-20T03:32:58.199Z,9.40
2022-10-20T03:35:26.518Z,9.40
2022-10-20T03:37:54.602Z,9.50
2022-10-20T03:40:24.018Z,9.40
2022-10-20T03:42:52.151Z,9.40
2022-10-20T03:45:20.277Z,9.40
2022-10-20T03:47:48.466Z,9.40
2022-10-20T03:50:16.770Z,9.40
2022-10-20T03:52:45.094Z,9.40
2022-10-20T03:55:13.364Z,9.40
2022-10-20T03:57:42.900Z,9.40
2022-10-20T04:00:13.539Z,9.50
2022-10-20T04:02:45.385Z,9.50
2022-10-20T04:05:16.845Z,9.50
2022-10-20T04:07:45.195Z,9.50
2022-10-20T04:10:15.875Z,9.50
2022-10-20T04:12:45.424Z,9.50
2022-10-20T04:15:13.766Z,9.60
2022-10-20T04:17:42.004Z,9.60
2022-10-20T04:20:11.472Z,9.60
2022-10-20T04:22:40.426Z,9.60
2022-10-20T04:25:09.500Z,9.70
2022-10-20T04:27:38.017Z,9.70
2022-10-20T04:30:10.460Z,9.70
2022-10-20T04:32:38.590Z,9.70
2022-10-20T04:35:08.070Z,9.70
2022-10-20T04:37:36.363Z,9.70
2022-10-20T04:40:05.508Z,9.80
2022-10-20T04:42:33.620Z,9.80
2022-10-20T04:45:01.778Z,9.80
2022-10-20T04:47:34.767Z,9.80
2022-10-20T04:50:03.260Z,9.90
2022-10-20T04:52:31.447Z,9.90
2022-10-20T04:54:59.490Z,9.90
2022-10-20T04:57:27.772Z,9.90
2022-10-20T04:59:55.977Z,9.90
2022-10-20T05:02:24.693Z,9.90
2022-10-20T05:04:54.120Z,9.90
2022-10-20T05:07:22.235Z,10.00
2022-10-20T05:09:50.328Z,10.00
2022-10-20T05:12:18.588Z,10.10
2022-10-20T05:14:46.655Z,10.10
2022-10-20T05:17:15.347Z,10.10
2022-10-20T05:19:43.414Z,10.10
2022-10-20T05:22:13.060Z,10.10
2022-10-20T05:24:41.744Z,10.10
2022-10-20T05:27:09.821Z,10.20
2022-10-20T05:29:37.903Z,10.20
2022-10-20T05:32:06.153Z,10.20
2022-10-20T05:34:34.217Z,10.30
2022-10-20T05:37:02.287Z,10.30
2022-10-20T05:39:31.667Z,10.30
2022-10-20T05:42:00.139Z,10.40
2022-10-20T05:44:28.300Z,10.40
2022-10-20T05:46:56.378Z,10.40
2022-10-20T05:49:24.469Z,10.50
2022-10-20T05:51:52.540Z,10.60
2022-10-20T05:54:20.939Z,10.60
2022-10-20T05:56:50.345Z,10.70
2022-10-20T05:59:18.421Z,10.70
2022-10-20T06:01:49.409Z,10.70
2022-10-20T06:04:20.033Z,10.80
2022-10-20T06:06:48.994Z,10.80
2022-10-20T06:09:17.980Z,10.90
2022-10-20T06:11:46.066Z,10.90
2022-10-20T06:14:15.988Z,10.90
2022-10-20T06:16:44.611Z,11.00
2022-10-20T06:19:12.706Z,11.00
2022-10-20T06:24:14.551Z,11.10
2022-10-20T06:26:44.016Z,11.20
2022-10-20T06:29:17.089Z,11.20
2022-10-20T06:31:47.900Z,11.20
2022-10-20T06:34:18.884Z,11.30
2022-10-20T06:36:47.735Z,11.30
2022-10-20T06:39:19.097Z,11.40
2022-10-20T06:41:50.474Z,11.50
2022-10-20T06:44:24.506Z,11.60
2022-10-20T06:46:53.326Z,11.70
2022-10-20T06:49:21.968Z,11.70
2022-10-20T06:51:50.768Z,11.80
2022-10-20T06:54:19.166Z,11.90
2022-10-20T06:56:47.243Z,12.00
2022-10-20T06:59:15.344Z,12.10
2022-10-20T07:01:44.887Z,12.20
2022-10-20T07:04:16.620Z,12.40
2022-10-20T07:06:47.203Z,12.60
2022-10-20T07:09:17.829Z,12.90
2022-10-20T07:11:46.213Z,13.10
2022-10-20T07:14:15.115Z,13.30
2022-10-20T07:16:44.532Z,13.60
2022-10-20T07:19:12.646Z,14.00
2022-10-20T07:21:45.456Z,14.30
2022-10-20T07:24:15.464Z,14.50
2022-10-20T07:26:43.920Z,14.80
2022-10-20T07:29:13.716Z,15.30
2022-10-20T07:31:45.878Z,15.80
2022-10-20T07:34:31.748Z,16.40
2022-10-20T07:37:00.354Z,17.00
2022-10-20T07:39:29.403Z,17.70
2022-10-20T07:41:57.647Z,18.20
2022-10-20T07:44:26.600Z,18.90
2022-10-20T07:46:56.044Z,19.20
2022-10-20T07:49:43.460Z,19.70
2022-10-20T07:52:12.875Z,20.00
2022-10-20T07:54:40.954Z,20.30
2022-10-20T07:57:09.124Z,20.70
2022-10-20T07:59:37.290Z,20.90
2022-10-20T08:02:06.899Z,21.10
2022-10-20T08:04:35.161Z,21.30
2022-10-20T08:07:03.234Z,21.40
2022-10-20T08:09:33.691Z,21.50
2022-10-20T08:12:02.196Z,21.20
2022-10-20T08:14:33.580Z,20.90
2022-10-20T08:17:07.486Z,20.80
2022-10-20T08:22:21.903Z,21.10
2022-10-20T08:24:50.009Z,21.00
2022-10-20T08:27:18.510Z,21.20
2022-10-20T08:29:55.037Z,21.70
2022-10-20T08:32:28.708Z,22.00
2022-10-20T08:34:58.149Z,22.30
2022-10-20T08:37:26.521Z,22.60
2022-10-20T08:39:54.649Z,22.70
2022-10-20T08:42:23.275Z,23.00
2022-10-20T08:44:52.106Z,23.30
2022-10-20T08:47:30.672Z,23.30
2022-10-20T08:50:04.190Z,23.40
2022-10-20T08:52:32.466Z,23.60
2022-10-20T08:55:00.881Z,23.50
2022-10-20T08:57:34.607Z,23.70
2022-10-20T09:00:16.297Z,24.00
2022-10-20T09:02:44.462Z,24.00
2022-10-20T09:05:18.277Z,24.10
2022-10-20T09:07:49.750Z,23.90
2022-10-20T09:10:32.160Z,24.10
2022-10-20T09:13:01.215Z,24.30
2022-10-20T09:15:30.638Z,24.70
2022-10-20T09:18:03.539Z,24.70
2022-10-20T09:20:39.147Z,25.30
2022-10-20T09:23:28.298Z,25.90
2022-10-20T09:25:57.562Z,26.00
2022-10-20T09:28:34.964Z,26.10
2022-10-20T09:31:23.447Z,26.40
2022-10-20T09:33:51.671Z,26.50
2022-10-20T09:36:22.403Z,26.80
2022-10-20T09:38:52.564Z,27.10
2022-10-20T09:41:23.182Z,27.20
2022-10-20T09:43:57.250Z,26.80
2022-10-20T09:46:29.330Z,27.00
2022-10-20T09:48:58.057Z,26.50
2022-10-20T09:51:29.217Z,25.80
2022-10-20T09:54:01.747Z,24.90
2022-10-20T09:56:33.480Z,25.40
2022-10-20T09:59:04.275Z,25.60
2022-10-20T10:01:32.683Z,25.40
2022-10-20T10:04:01.906Z,25.20
2022-10-20T10:06:42.110Z,25.20
2022-10-20T10:09:31.012Z,25.00
2022-10-20T10:12:01.781Z,25.00
2022-10-20T10:14:33.315Z,25.30
2022-10-20T10:17:02.633Z,25.30
2022-10-20T10:19:34.150Z,25.20
2022-10-20T10:22:04.892Z,24.40
2022-10-20T10:24:46.359Z,23.40
2022-10-20T10:27:25.663Z,23.00
2022-10-20T10:29:55.172Z,22.30
2022-10-20T10:32:27.364Z,21.80
2022-10-20T10:35:18.718Z,21.50
2022-10-20T10:37:48.859Z,21.30
2022-10-20T10:40:20.669Z,21.10
2022-10-20T10:43:13.785Z,20.90
2022-10-20T10:45:50.100Z,20.50
2022-10-20T10:48:53.705Z,20.50
2022-10-20T10:51:42.741Z,20.70
2022-10-20T10:54:35.742Z,22.20
2022-10-20T10:57:14.270Z,23.70
2022-10-20T10:59:45.379Z,24.70
2022-10-20T11:02:43.083Z,25.80
2022-10-20T11:06:09.429Z,26.30
2022-10-20T11:08:55.344Z,25.60
2022-10-20T11:11:40.380Z,24.80
2022-10-20T11:14:24.490Z,24.50
2022-10-20T11:17:18.077Z,24.20
2022-10-20T11:20:22.835Z,24.00
2022-10-20T11:23:13.366Z,23.60
2022-10-20T11:25:51.035Z,23.10
2022-10-20T11:28:32.623Z,22.50
2022-10-20T11:31:01.569Z,21.90
2022-10-20T11:33:39.332Z,21.70
2022-10-20T11:36:15.574Z,21.50
2022-10-20T11:38:49.680Z,21.30
2022-10-20T11:41:25.305Z,21.20
2022-10-20T11:44:01.088Z,21.00
2022-10-20T11:46:37.474Z,20.90
2022-10-20T11:49:06.442Z,20.80
2022-10-20T11:52:08.256Z,20.50
2022-10-20T11:55:06.419Z,20.40
2022-10-20T11:57:56.412Z,20.30
2022-10-20T12:01:01.397Z,20.20
2022-10-20T12:03:59.579Z,19.80
2022-10-20T12:06:58.973Z,19.80
2022-10-20T12:09:52.263Z,19.80
2022-10-20T12:12:28.269Z,19.70
2022-10-20T12:15:00.981Z,19.60
2022-10-20T12:17:35.651Z,19.60
2022-10-20T12:20:59.714Z,19.60
2022-10-20T12:24:07.557Z,19.50
2022-10-20T12:27:18.673Z,19.30
2022-10-20T12:29:56.027Z,19.20
2022-10-20T12:33:19.755Z,19.10
2022-10-20T12:36:30.903Z,19.10
2022-10-20T12:39:21.601Z,19.10
2022-10-20T12:42:21.407Z,19.00
2022-10-20T12:44:49.971Z,18.90
2022-10-20T12:47:23.055Z,18.90
2022-10-20T12:49:57.356Z,18.90
2022-10-20T12:52:30.178Z,18.90
2022-10-20T12:55:05.939Z,18.90
2022-10-20T12:57:41.376Z,18.80
2022-10-20T13:01:03.727Z,18.80
2022-10-20T13:03:44.113Z,18.60
2022-10-20T13:06:46.351Z,18.70
2022-10-20T13:09:23.917Z,18.70
2022-10-20T13:12:03.997Z,18.70
2022-10-20T13:14:47.547Z,18.70
2022-10-20T13:17:49.666Z,18.70
2022-10-20T13:20:28.356Z,18.60
2022-10-20T13:25:36.778Z,18.60
2022-10-20T13:28:18.365Z,18.60
2022-10-20T13:31:12.864Z,18.60
2022-10-20T13:34:03.742Z,18.40
2022-10-20T13:36:47.959Z,18.20
2022-10-20T13:39:23.733Z,18.20
2022-10-20T13:42:03.662Z,18.10
2022-10-20T13:44:40.368Z,18.00
2022-10-20T13:47:36.174Z,17.90
2022-10-20T13:50:11.785Z,17.90
2022-10-20T13:52:44.888Z,17.90
2022-10-20T13:55:20.276Z,17.90
2022-10-20T13:57:55.791Z,18.00
2022-10-20T14:00:28.360Z,17.90
2022-10-20T14:03:00.259Z,17.90
2022-10-20T14:05:31.465Z,17.90
2022-10-20T14:08:06.139Z,17.90
2022-10-20T14:10:45.280Z,17.90
2022-10-20T14:13:18.863Z,18.00
2022-10-20T14:15:50.101Z,18.00
2022-10-20T14:18:26.783Z,18.00
2022-10-20T14:20:58.990Z,18.10
2022-10-20T14:23:29.773Z,18.10
2022-10-20T14:26:00.504Z,18.10
2022-10-20T14:28:33.412Z,18.00
2022-10-20T14:31:02.087Z,18.00
2022-10-20T14:33:31.287Z,18.00
2022-10-20T14:36:02.554Z,18.00
2022-10-20T14:38:37.646Z,17.90
2022-10-20T14:41:09.547Z,17.90
2022-10-20T14:43:41.283Z,17.90
2022-10-20T14:46:13.048Z,17.90
2022-10-20T14:48:45.358Z,17.90
2022-10-20T14:51:35.992Z,17.90
2022-10-20T14:54:18.062Z,17.90
2022-10-20T14:56:50.290Z,17.90
2022-10-20T14:59:21.558Z,17.90
2022-10-20T15:02:09.489Z,17.90
2022-10-20T15:04:39.099Z,17.90
2022-10-20T15:07:13.466Z,17.90
2022-10-20T15:09:44.687Z,17.90
2022-10-20T15:12:19.936Z,17.80
2022-10-20T15:14:51.440Z,17.80
2022-10-20T15:17:38.317Z,17.80
2022-10-20T15:20:33.789Z,17.80
2022-10-20T15:23:05.177Z,17.80
2022-10-20T15:25:42.990Z,17.80
2022-10-20T15:28:36.871Z,17.80
2022-10-20T15:31:08.463Z,17.70
2022-10-20T15:33:36.632Z,17.60
2022-10-20T15:36:11.285Z,17.60
2022-10-20T15:38:39.424Z,17.50
2022-10-20T15:41:07.544Z,17.40
2022-10-20T15:43:36.979Z,17.40
2022-10-20T15:46:05.895Z,17.40
2022-10-20T15:48:34.008Z,17.40
2022-10-20T15:51:02.200Z,17.30
2022-10-20T15:53:30.422Z,17.30
2022-10-20T15:55:58.628Z,17.30
2022-10-20T15:58:26.667Z,17.30
2022-10-20T16:00:56.324Z,17.20
2022-10-20T16:03:24.481Z,17.20
2022-10-20T16:05:52.542Z,17.20
2022-10-20T16:08:20.688Z,17.20
2022-10-20T16:10:48.766Z,17.20
2022-10-20T16:13:19.022Z,17.10
2022-10-20T16:15:47.225Z,17.00
2022-10-20T16:18:16.710Z,16.90
2022-10-20T16:20:44.791Z,16.90
2022-10-20T16:23:12.884Z,16.90
2022-10-20T16:25:41.495Z,16.90
2022-10-20T16:28:09.927Z,16.80
2022-10-20T16:30:38.130Z,16.80
2022-10-20T16:33:06.266Z,16.70
2022-10-20T16:35:35.872Z,16.70
2022-10-20T16:38:04.361Z,16.70
2022-10-20T16:40:32.467Z,16.70
2022-10-20T16:43:01.495Z,16.60
2022-10-20T16:45:29.783Z,16.60
2022-10-20T16:47:57.869Z,16.60
2022-10-20T16:50:25.995Z,16.50
2022-10-20T16:52:55.484Z,16.50
2022-10-20T16:55:23.558Z,16.50
2022-10-20T16:57:51.752Z,16.50
2022-10-20T17:00:20.047Z,16.50
2022-10-20T17:02:48.850Z,16.50
2022-10-20T17:05:19.627Z,16.40
2022-10-20T17:07:47.796Z,16.40
2022-10-20T17:10:17.732Z,16.40
2022-10-20T17:15:21.573Z,16.30
2022-10-20T17:17:49.675Z,16.30
2022-10-20T17:20:18.022Z,16.30
2022-10-20T17:22:46.186Z,16.30
2022-10-20T17:25:15.788Z,16.30
2022-10-20T17:27:43.924Z,16.30
2022-10-20T17:30:13.910Z,16.20
2022-10-20T17:32:43.028Z,16.20
2022-10-20T17:35:12.392Z,16.10
2022-10-20T17:37:40.448Z,16.10
2022-10-20T17:40:09.819Z,16.10
2022-10-20T17:42:39.778Z,16.10
2022-10-20T17:45:09.629Z,16.10
2022-10-20T17:47:37.829Z,16.10
2022-10-20T17:52:40.582Z,16.00
2022-10-20T17:55:09.768Z,16.00
2022-10-20T17:57:39.447Z,15.90
2022-10-20T18:00:14.416Z,15.90
2022-10-20T18:02:49.264Z,15.90
2022-10-20T18:05:18.013Z,15.90
2022-10-20T18:07:46.643Z,15.90
2022-10-20T18:10:14.986Z,15.90
2022-10-20T18:12:44.568Z,15.90
2022-10-20T18:15:13.153Z,15.90
2022-10-20T18:17:41.464Z,15.90
2022-10-20T18:20:11.811Z,15.90
2022-10-20T18:22:40.783Z,15.80
2022-10-20T18:25:09.975Z,15.90
2022-10-20T18:27:38.103Z,15.80
2022-10-20T18:30:09.711Z,15.80
2022-10-20T18:32:37.983Z,15.80
2022-10-20T18:35:07.581Z,15.80
2022-10-20T18:37:36.080Z,15.70
2022-10-20T18:40:05.191Z,15.70
2022-10-20T18:42:34.353Z,15.70
2022-10-20T18:45:02.452Z,15.70
2022-10-20T18:47:31.863Z,15.70
2022-10-20T18:50:00.000Z,15.70
2022-10-20T18:52:28.106Z,15.70
2022-10-20T18:54:56.455Z,15.70
2022-10-20T18:57:24.608Z,15.70
2022-10-20T18:59:52.760Z,15.70
2022-10-20T19:02:20.795Z,15.70
2022-10-20T19:04:50.268Z,15.70
2022-10-20T19:07:18.379Z,15.70
2022-10-20T19:09:46.434Z,15.60
2022-10-20T19:12:14.539Z,15.60
2022-10-20T19:14:42.631Z,15.60
2022-10-20T19:17:10.815Z,15.60
2022-10-20T19:19:41.596Z,15.60
2022-10-20T19:22:11.048Z,15.50
2022-10-20T19:24:40.520Z,15.40
2022-10-20T19:27:26.936Z,15.40
2022-10-20T19:29:56.003Z,15.40
2022-10-20T19:32:24.330Z,15.40
2022-10-20T19:34:52.544Z,15.40
2022-10-20T19:37:21.999Z,15.40
2022-10-20T19:39:50.086Z,15.40
2022-10-20T19:42:20.100Z,15.30
2022-10-20T19:44:48.221Z,15.30
2022-10-20T19:47:16.829Z,15.30
2022-10-20T19:49:45.196Z,15.30
2022-10-20T19:52:13.460Z,15.30
2022-10-20T19:54:42.935Z,15.30
2022-10-20T19:57:11.255Z,15.30
2022-10-20T19:59:39.609Z,15.30
2022-10-20T20:02:08.257Z,15.30
2022-10-20T20:04:36.376Z,15.30
2022-10-20T20:07:04.706Z,15.30
2022-10-20T20:09:33.049Z,15.30
2022-10-20T20:12:02.515Z,15.30
2022-10-20T20:14:30.648Z,15.20
2022-10-20T20:16:58.820Z,15.20
2022-10-20T20:19:26.934Z,15.20
2022-10-20T20:21:55.065Z,15.20
2022-10-20T20:24:23.221Z,15.20
2022-10-20T20:26:51.378Z,15.20
2022-10-20T20:29:20.826Z,15.20
2022-10-20T20:31:49.008Z,15.10
2022-10-20T20:34:18.484Z,15.20
2022-10-20T20:36:46.546Z,15.10
2022-10-20T20:39:14.690Z,15.10
2022-10-20T20:41:43.115Z,15.10
2022-10-20T20:44:11.320Z,15.10
2022-10-20T20:46:40.804Z,15.10
2022-10-20T20:49:08.893Z,15.10
2022-10-20T20:51:36.967Z,15.10
2022-10-20T20:54:05.307Z,15.10
2022-10-20T20:56:33.758Z,15.10
2022-10-20T20:59:01.862Z,15.10
2022-10-20T21:01:32.099Z,15.10
2022-10-20T21:04:03.849Z,15.10
2022-10-20T21:06:43.198Z,15.10
2022-10-20T21:09:21.328Z,15.10
2022-10-20T21:11:50.322Z,15.10
2022-10-20T21:14:18.405Z,15.10
2022-10-20T21:16:46.862Z,15.10
2022-10-20T21:19:16.486Z,15.10
2022-10-20T21:21:50.463Z,15.10
2022-10-20T21:24:19.656Z,15.10
2022-10-20T21:26:48.668Z,15.10
2022-10-20T21:29:18.000Z,15.20
2022-10-20T21:31:46.092Z,15.20
2022-10-20T21:34:14.236Z,15.20
2022-10-20T21:36:44.071Z,15.10
2022-10-20T21:39:15.776Z,15.10
2022-10-20T21:41:45.367Z,15.10
2022-10-20T21:44:15.053Z,15.10
2022-10-20T21:46:47.196Z,15.10
2022-10-20T21:49:18.425Z,15.00
2022-10-20T21:51:52.187Z,15.00
2022-10-20T21:54:22.852Z,15.00
2022-10-20T21:56:51.367Z,14.90
2022-10-20T21:59:23.986Z,14.90
2022-10-20T22:01:53.895Z,14.90
2022-10-20T22:04:25.542Z,14.90
2022-10-20T22:06:56.360Z,14.90
2022-10-20T22:09:24.708Z,14.90
2022-10-20T22:11:56.597Z,14.80
2022-10-20T22:14:24.703Z,14.80
2022-10-20T22:16:55.333Z,14.80
2022-10-20T22:19:24.932Z,14.70
2022-10-20T22:21:55.090Z,14.70
2022-10-20T22:24:24.483Z,14.70
2022-10-20T22:26:53.859Z,14.70
2022-10-20T22:29:23.227Z,14.70
2022-10-20T22:31:51.650Z,14.60
2022-10-20T22:34:19.723Z,14.60
2022-10-20T22:36:48.111Z,14.60
2022-10-20T22:39:17.631Z,14.60
2022-10-20T22:41:45.709Z,14.60
2022-10-20T22:44:13.806Z,14.60
2022-10-20T22:46:41.867Z,14.60
2022-10-20T22:49:10.246Z,14.60
2022-10-20T22:51:38.333Z,14.60
2022-10-20T22:54:07.986Z,14.60
2022-10-20T22:56:37.430Z,14.50
2022-10-20T22:59:05.500Z,14.50
2022-10-20T23:01:33.655Z,14.40
2022-10-20T23:04:01.812Z,14.40
2022-10-20T23:06:29.935Z,14.40
2022-10-20T23:08:58.099Z,14.40
2022-10-20T23:11:26.490Z,14.40
2022-10-20T23:13:55.962Z,14.50
2022-10-20T23:18:57.943Z,14.40
2022-10-20T23:21:26.430Z,14.40
2022-10-20T23:23:54.494Z,14.40
2022-10-20T23:26:22.548Z,14.40
2022-10-20T23:28:50.617Z,14.30
2022-10-20T23:31:22.841Z,14.30
2022-10-20T23:33:55.666Z,14.30
2022-10-20T23:36:23.916Z,14.20
2022-10-20T23:38:52.035Z,14.30
2022-10-20T23:41:20.152Z,14.30
2022-10-20T23:43:48.227Z,14.20
2022-10-20T23:46:16.373Z,14.20
2022-10-20T23:48:45.778Z,14.20
2022-10-20T23:51:13.874Z,14.20
2022-10-20T23:53:41.961Z,14.10
2022-10-20T23:56:10.003Z,14.00
2022-10-20T23:58:38.055Z,14.00
